createdAt,value
2017-07-14T00:00:48.097Z,15.10
2017-07-14T00:03:14.414Z,15.20
2017-07-14T00:05:41.737Z,15.20
2017-07-14T00:08:08.046Z,15.20
2017-07-14T00:10:34.349Z,15.20
2017-07-14T00:13:00.678Z,15.20
2017-07-14T00:15:26.993Z,15.20
2017-07-14T00:17:53.332Z,15.20
2017-07-14T00:20:19.684Z,15.20
2017-07-14T00:22:46.729Z,15.40
2017-07-14T00:25:13.049Z,15.30
2017-07-14T00:27:39.358Z,15.40
2017-07-14T00:30:05.682Z,15.40
2017-07-14T00:32:31.998Z,15.50
2017-07-14T00:34:58.305Z,15.40
2017-07-14T00:37:25.582Z,15.40
2017-07-14T00:39:51.886Z,15.40
2017-07-14T00:42:18.187Z,15.30
2017-07-14T00:44:44.486Z,15.30
2017-07-14T00:47:10.813Z,15.30
2017-07-14T00:49:37.110Z,15.20
2017-07-14T00:52:03.436Z,15.20
2017-07-14T00:54:29.745Z,15.10
2017-07-14T00:56:56.798Z,15.10
2017-07-14T00:59:23.106Z,15.00
2017-07-14T01:01:49.400Z,15.00
2017-07-14T01:04:15.702Z,15.00
2017-07-14T01:06:42.013Z,14.90
2017-07-14T01:09:10.078Z,14.80
2017-07-14T01:11:36.380Z,14.70
2017-07-14T01:14:03.725Z,14.70
2017-07-14T01:16:30.030Z,14.80
2017-07-14T01:18:56.338Z,14.90
2017-07-14T01:21:22.649Z,14.80
2017-07-14T01:23:49.691Z,14.90
2017-07-14T01:26:16.002Z,14.90
2017-07-14T01:28:42.307Z,15.00
2017-07-14T01:31:08.653Z,15.00
2017-07-14T01:33:34.977Z,15.10
2017-07-14T01:36:01.286Z,15.10
2017-07-14T01:38:27.636Z,15.10
2017-07-14T01:40:53.997Z,15.10
2017-07-14T01:43:20.321Z,15.10
2017-07-14T01:45:46.653Z,15.10
2017-07-14T01:48:13.022Z,15.10
2017-07-14T01:50:39.358Z,15.00
2017-07-14T01:53:05.746Z,15.00
2017-07-14T01:55:32.112Z,14.90
2017-07-14T01:57:58.452Z,14.90
2017-07-14T02:00:24.790Z,14.90
2017-07-14T02:02:51.137Z,14.80
2017-07-14T02:05:17.465Z,14.80
2017-07-14T02:07:43.858Z,14.80
2017-07-14T02:13:03.841Z,14.70
2017-07-14T02:15:30.186Z,14.50
2017-07-14T02:17:56.509Z,14.50
2017-07-14T02:20:23.589Z,14.50
2017-07-14T02:22:49.937Z,14.50
2017-07-14T02:25:16.312Z,14.50
2017-07-14T02:27:42.641Z,14.50
2017-07-14T02:30:08.985Z,14.50
2017-07-14T02:32:36.058Z,14.40
2017-07-14T02:35:02.414Z,14.40
2017-07-14T02:37:28.734Z,14.40
2017-07-14T02:39:55.046Z,14.30
2017-07-14T02:42:21.387Z,14.30
2017-07-14T02:44:47.710Z,14.30
2017-07-14T02:47:14.093Z,14.30
2017-07-14T02:49:40.417Z,14.50
2017-07-14T02:52:06.774Z,14.50
2017-07-14T02:54:33.106Z,14.50
2017-07-14T02:57:00.178Z,14.50
2017-07-14T02:59:26.507Z,14.50
2017-07-14T03:01:52.853Z,14.50
2017-07-14T03:04:19.182Z,14.50
2017-07-14T03:06:45.521Z,14.50
2017-07-14T03:09:11.863Z,14.50
2017-07-14T03:11:38.207Z,14.50
2017-07-14T03:14:04.543Z,14.50
2017-07-14T03:16:30.899Z,14.50
2017-07-14T03:18:57.246Z,14.50
2017-07-14T03:21:23.581Z,14.50
2017-07-14T03:23:49.925Z,14.50
2017-07-14T03:26:16.262Z,14.50
2017-07-14T03:28:42.600Z,14.40
2017-07-14T03:31:08.934Z,14.50
2017-07-14T03:33:35.281Z,14.50
2017-07-14T03:36:01.603Z,14.60
2017-07-14T03:38:27.923Z,14.50
2017-07-14T03:40:54.260Z,14.50
2017-07-14T03:43:20.610Z,14.50
2017-07-14T03:45:46.938Z,14.60
2017-07-14T03:48:13.292Z,14.70
2017-07-14T03:50:40.359Z,14.90
2017-07-14T03:53:06.692Z,14.90
2017-07-14T03:55:34.073Z,15.00
2017-07-14T03:58:00.406Z,15.10
2017-07-14T04:00:26.741Z,15.10
2017-07-14T04:02:53.066Z,15.10
2017-07-14T04:05:20.415Z,15.00
2017-07-14T04:07:47.710Z,15.10
2017-07-14T04:10:14.010Z,15.20
2017-07-14T04:12:40.323Z,15.30
2017-07-14T04:15:06.669Z,15.40
2017-07-14T04:17:32.975Z,15.30
2017-07-14T04:19:59.305Z,15.20
2017-07-14T04:22:25.609Z,15.20
2017-07-14T04:24:51.919Z,15.40
2017-07-14T04:27:19.231Z,15.50
2017-07-14T04:29:45.542Z,15.60
2017-07-14T04:32:11.846Z,15.50
2017-07-14T04:34:38.148Z,15.50
2017-07-14T04:37:05.430Z,15.60
2017-07-14T04:39:31.745Z,15.80
2017-07-14T04:41:59.079Z,15.90
2017-07-14T04:44:25.401Z,16.10
2017-07-14T04:46:52.725Z,16.00
2017-07-14T04:49:19.027Z,16.10
2017-07-14T04:51:45.350Z,16.00
2017-07-14T04:54:11.653Z,16.00
2017-07-14T04:56:37.954Z,15.90
2017-07-14T04:59:04.263Z,15.90
2017-07-14T05:01:30.558Z,15.90
2017-07-14T05:03:56.854Z,15.90
2017-07-14T05:06:23.163Z,15.90
2017-07-14T05:08:49.462Z,16.00
2017-07-14T05:11:15.773Z,16.00
2017-07-14T05:13:43.088Z,16.10
2017-07-14T05:16:09.394Z,16.10
2017-07-14T05:18:36.730Z,16.20
2017-07-14T05:21:03.038Z,16.20
2017-07-14T05:23:29.333Z,16.20
2017-07-14T05:25:55.694Z,15.90
2017-07-14T05:28:22.015Z,16.00
2017-07-14T05:30:48.338Z,15.90
2017-07-14T05:33:14.645Z,16.00
2017-07-14T05:35:40.961Z,16.10
2017-07-14T05:38:07.262Z,16.10
2017-07-14T05:40:33.553Z,16.20
2017-07-14T05:42:59.863Z,16.20
2017-07-14T05:45:26.163Z,16.10
2017-07-14T05:47:52.478Z,16.20
2017-07-14T05:50:19.533Z,16.00
2017-07-14T05:52:45.838Z,16.00
2017-07-14T05:55:12.882Z,15.80
2017-07-14T05:57:39.918Z,15.80
2017-07-14T06:00:06.222Z,15.80
2017-07-14T06:02:32.550Z,15.80
2017-07-14T06:04:58.873Z,15.80
2017-07-14T06:07:25.179Z,15.60
2017-07-14T06:09:51.470Z,15.30
2017-07-14T06:12:17.779Z,15.30
2017-07-14T06:14:44.082Z,15.10
2017-07-14T06:17:10.388Z,15.10
2017-07-14T06:19:36.683Z,15.10
2017-07-14T06:22:02.990Z,15.00
2017-07-14T06:24:29.303Z,15.10
2017-07-14T06:26:55.605Z,15.20
2017-07-14T06:29:21.909Z,15.30
2017-07-14T06:31:48.206Z,15.30
2017-07-14T06:34:14.530Z,15.20
2017-07-14T06:36:40.857Z,15.30
2017-07-14T06:39:08.162Z,15.60
2017-07-14T06:41:34.478Z,15.50
2017-07-14T06:44:00.782Z,15.60
2017-07-14T06:46:27.085Z,15.60
2017-07-14T06:48:53.398Z,15.70
2017-07-14T06:51:19.715Z,15.70
2017-07-14T06:53:46.038Z,15.80
2017-07-14T06:56:13.087Z,16.00
2017-07-14T06:58:40.122Z,16.10
2017-07-14T07:01:06.451Z,16.00
2017-07-14T07:03:32.778Z,16.00
2017-07-14T07:05:59.079Z,15.90
2017-07-14T07:08:25.387Z,15.80
2017-07-14T07:10:51.681Z,15.90
2017-07-14T07:13:18.716Z,15.90
2017-07-14T07:15:45.774Z,15.90
2017-07-14T07:18:12.103Z,15.90
2017-07-14T07:20:38.430Z,15.90
2017-07-14T07:23:04.735Z,16.00
2017-07-14T07:25:31.094Z,16.10
2017-07-14T07:27:57.398Z,16.10
2017-07-14T07:30:23.722Z,16.10
2017-07-14T07:32:50.028Z,16.30
2017-07-14T07:35:16.347Z,16.30
2017-07-14T07:37:42.663Z,16.50
2017-07-14T07:40:08.963Z,16.70
2017-07-14T07:42:35.293Z,16.80
2017-07-14T07:45:01.600Z,17.10
2017-07-14T07:47:34.031Z,17.30
2017-07-14T07:50:00.325Z,17.50
2017-07-14T07:52:26.632Z,17.50
2017-07-14T07:54:52.934Z,17.50
2017-07-14T07:57:19.239Z,17.50
2017-07-14T07:59:45.522Z,17.50
2017-07-14T08:02:11.795Z,17.40
2017-07-14T08:04:38.824Z,17.30
2017-07-14T08:07:05.105Z,17.30
2017-07-14T08:09:31.413Z,17.20
2017-07-14T08:11:57.814Z,17.30
2017-07-14T08:14:25.862Z,17.30
2017-07-14T08:16:52.182Z,17.30
2017-07-14T08:19:18.465Z,17.20
2017-07-14T08:21:44.747Z,17.40
2017-07-14T08:24:11.075Z,17.20
2017-07-14T08:26:37.386Z,17.10
2017-07-14T08:29:03.678Z,17.30
2017-07-14T08:31:29.967Z,17.40
2017-07-14T08:33:56.273Z,17.50
2017-07-14T08:36:22.681Z,17.50
2017-07-14T08:38:50.003Z,17.50
2017-07-14T08:41:16.264Z,17.50
2017-07-14T08:43:42.530Z,17.70
2017-07-14T08:46:09.859Z,17.90
2017-07-14T08:48:36.126Z,18.20
2017-07-14T08:51:02.400Z,18.20
2017-07-14T08:53:28.672Z,18.30
2017-07-14T08:55:54.986Z,18.40
2017-07-14T08:58:21.312Z,18.80
2017-07-14T09:00:47.593Z,19.30
2017-07-14T09:03:14.613Z,20.00
2017-07-14T09:05:40.943Z,20.00
2017-07-14T09:08:07.215Z,20.10
2017-07-14T09:10:35.270Z,20.30
2017-07-14T09:13:02.305Z,20.30
2017-07-14T09:15:28.573Z,20.30
2017-07-14T09:17:54.868Z,20.30
2017-07-14T09:20:21.328Z,20.20
2017-07-14T09:22:47.617Z,20.20
2017-07-14T09:25:13.879Z,20.00
2017-07-14T09:27:40.917Z,20.00
2017-07-14T09:30:07.190Z,20.00
2017-07-14T09:32:33.454Z,20.30
2017-07-14T09:34:59.738Z,20.30
2017-07-14T09:37:25.999Z,20.30
2017-07-14T09:39:52.258Z,20.40
2017-07-14T09:42:19.286Z,20.00
2017-07-14T09:44:45.553Z,20.10
2017-07-14T09:47:12.238Z,20.10
2017-07-14T09:49:38.506Z,20.40
2017-07-14T09:52:05.575Z,20.40
2017-07-14T09:54:31.837Z,20.40
2017-07-14T09:56:58.928Z,20.20
2017-07-14T09:59:25.942Z,20.30
2017-07-14T10:01:52.214Z,20.20
2017-07-14T10:04:18.479Z,20.60
2017-07-14T10:06:44.738Z,20.80
2017-07-14T10:09:11.005Z,20.90
2017-07-14T10:11:37.287Z,20.90
2017-07-14T10:14:03.566Z,21.20
2017-07-14T10:16:29.838Z,21.20
2017-07-14T10:18:56.106Z,21.50
2017-07-14T10:21:23.102Z,21.80
2017-07-14T10:23:49.386Z,21.70
2017-07-14T10:26:15.653Z,21.90
2017-07-14T10:28:41.925Z,22.20
2017-07-14T10:31:08.189Z,22.30
2017-07-14T10:33:34.456Z,22.40
2017-07-14T10:36:00.735Z,22.40
2017-07-14T10:38:27.002Z,22.30
2017-07-14T10:40:53.275Z,22.60
2017-07-14T10:43:20.281Z,22.80
2017-07-14T10:45:46.550Z,22.80
2017-07-14T10:48:13.573Z,22.40
2017-07-14T10:50:39.830Z,22.40
2017-07-14T10:53:06.096Z,22.40
2017-07-14T10:55:32.718Z,22.80
2017-07-14T10:57:58.986Z,23.00
2017-07-14T11:00:25.281Z,23.20
2017-07-14T11:02:51.547Z,23.60
2017-07-14T11:05:17.806Z,23.90
2017-07-14T11:07:44.071Z,24.30
2017-07-14T11:10:10.326Z,24.70
2017-07-14T11:12:36.614Z,24.90
2017-07-14T11:15:02.901Z,24.70
2017-07-14T11:17:29.162Z,24.40
2017-07-14T11:19:55.426Z,24.50
2017-07-14T11:22:21.682Z,24.20
2017-07-14T11:24:47.958Z,23.90
2017-07-14T11:27:14.234Z,23.60
2017-07-14T11:29:40.494Z,23.00
2017-07-14T11:32:06.755Z,23.00
2017-07-14T11:34:33.022Z,23.10
2017-07-14T11:36:59.305Z,23.30
2017-07-14T11:39:25.578Z,23.60
2017-07-14T11:41:51.845Z,23.40
2017-07-14T11:44:18.858Z,22.70
2017-07-14T11:46:45.119Z,22.70
2017-07-14T11:49:12.170Z,21.90
2017-07-14T11:51:38.429Z,21.90
2017-07-14T11:54:04.706Z,21.70
2017-07-14T11:56:30.963Z,21.40
2017-07-14T11:58:57.245Z,21.00
2017-07-14T12:01:23.539Z,20.30
2017-07-14T12:03:49.815Z,19.30
2017-07-14T12:06:16.096Z,18.40
2017-07-14T12:08:42.390Z,17.70
2017-07-14T12:11:08.669Z,17.10
2017-07-14T12:13:34.962Z,16.80
2017-07-14T12:16:01.234Z,16.60
2017-07-14T12:18:27.502Z,16.20
2017-07-14T12:20:53.781Z,15.80
2017-07-14T12:23:20.045Z,15.60
2017-07-14T12:25:46.344Z,15.60
2017-07-14T12:28:12.625Z,15.60
2017-07-14T12:30:39.626Z,15.70
2017-07-14T12:33:05.898Z,15.60
2017-07-14T12:35:34.510Z,16.50
2017-07-14T12:38:00.795Z,16.50
2017-07-14T12:40:27.801Z,17.60
2017-07-14T12:42:54.058Z,17.60
2017-07-14T12:45:20.334Z,18.00
2017-07-14T12:47:46.598Z,18.30
2017-07-14T12:50:12.907Z,18.60
2017-07-14T12:52:39.170Z,18.20
2017-07-14T12:55:05.450Z,17.80
2017-07-14T12:57:31.745Z,17.50
2017-07-14T12:59:58.030Z,17.30
2017-07-14T13:02:24.322Z,17.10
2017-07-14T13:04:50.604Z,16.90
2017-07-14T13:07:16.866Z,16.40
2017-07-14T13:09:43.150Z,16.10
2017-07-14T13:12:09.422Z,15.80
2017-07-14T13:14:35.717Z,15.70
2017-07-14T13:17:01.978Z,15.70
2017-07-14T13:19:28.271Z,15.70
2017-07-14T13:21:54.557Z,15.90
2017-07-14T13:24:20.837Z,15.80
2017-07-14T13:26:48.171Z,15.90
2017-07-14T13:29:14.442Z,16.20
2017-07-14T13:31:40.717Z,16.30
2017-07-14T13:34:07.018Z,16.60
2017-07-14T13:36:34.033Z,17.00
2017-07-14T13:39:00.320Z,16.90
2017-07-14T13:41:26.582Z,17.70
2017-07-14T13:43:52.849Z,19.00
2017-07-14T13:46:19.852Z,21.70
2017-07-14T13:48:46.118Z,21.60
2017-07-14T13:51:13.410Z,22.80
2017-07-14T13:53:39.675Z,23.20
2017-07-14T13:56:05.933Z,23.90
2017-07-14T13:58:32.933Z,23.40
2017-07-14T14:00:59.197Z,23.40
2017-07-14T14:03:25.482Z,23.30
2017-07-14T14:05:51.745Z,24.20
2017-07-14T14:08:18.003Z,24.60
2017-07-14T14:10:44.255Z,24.50
2017-07-14T14:13:10.519Z,24.70
2017-07-14T14:15:36.789Z,25.80
2017-07-14T14:18:03.050Z,26.50
2017-07-14T14:20:29.310Z,26.70
2017-07-14T14:22:55.573Z,26.00
2017-07-14T14:25:22.590Z,24.40
2017-07-14T14:27:48.850Z,24.30
2017-07-14T14:30:15.109Z,24.00
2017-07-14T14:32:41.381Z,23.30
2017-07-14T14:35:08.402Z,22.90
2017-07-14T14:37:34.676Z,22.90
2017-07-14T14:40:01.697Z,23.10
2017-07-14T14:42:27.954Z,23.10
2017-07-14T14:44:54.979Z,23.50
2017-07-14T14:47:21.237Z,23.50
2017-07-14T14:49:47.499Z,24.30
2017-07-14T14:52:13.795Z,24.50
2017-07-14T14:54:40.061Z,24.50
2017-07-14T14:57:06.318Z,25.00
2017-07-14T14:59:32.590Z,26.30
2017-07-14T15:01:58.867Z,27.30
2017-07-14T15:04:25.167Z,29.10
2017-07-14T15:06:51.426Z,29.60
2017-07-14T15:09:17.685Z,30.00
2017-07-14T15:11:44.691Z,28.40
2017-07-14T15:14:10.976Z,28.40
2017-07-14T15:16:37.276Z,28.90
2017-07-14T15:19:03.541Z,28.50
2017-07-14T15:21:29.804Z,28.80
2017-07-14T15:23:56.076Z,28.90
2017-07-14T15:26:22.373Z,28.20
2017-07-14T15:28:48.665Z,27.60
2017-07-14T15:31:14.929Z,27.30
2017-07-14T15:33:41.199Z,27.40
2017-07-14T15:36:07.466Z,27.10
2017-07-14T15:38:33.741Z,27.80
2017-07-14T15:41:00.033Z,28.90
2017-07-14T15:43:26.302Z,29.20
2017-07-14T15:45:53.309Z,29.30
2017-07-14T15:48:19.583Z,29.30
2017-07-14T15:50:45.845Z,28.50
2017-07-14T15:53:13.118Z,28.20
2017-07-14T15:55:40.257Z,28.80
2017-07-14T15:58:06.518Z,28.90
2017-07-14T16:00:32.802Z,29.40
2017-07-14T16:02:59.062Z,29.40
2017-07-14T16:05:26.350Z,29.80
2017-07-14T16:07:52.623Z,29.20
2017-07-14T16:10:18.919Z,28.50
2017-07-14T16:12:45.175Z,28.40
2017-07-14T16:15:11.452Z,28.20
2017-07-14T16:17:38.487Z,28.00
2017-07-14T16:20:04.756Z,28.00
2017-07-14T16:22:31.021Z,26.70
2017-07-14T16:24:57.294Z,25.70
2017-07-14T16:27:23.566Z,25.10
2017-07-14T16:29:49.861Z,24.70
2017-07-14T16:32:16.134Z,24.70
2017-07-14T16:34:42.399Z,25.40
2017-07-14T16:37:08.675Z,25.60
2017-07-14T16:39:34.945Z,24.90
2017-07-14T16:42:01.245Z,25.10
2017-07-14T16:44:27.503Z,24.90
2017-07-14T16:46:53.794Z,24.40
2017-07-14T16:49:20.054Z,23.60
2017-07-14T16:51:46.314Z,22.90
2017-07-14T16:54:13.359Z,21.10
2017-07-14T16:56:39.628Z,21.10
2017-07-14T16:59:05.899Z,20.40
2017-07-14T17:01:32.911Z,19.50
2017-07-14T17:03:59.225Z,19.50
2017-07-14T17:06:25.494Z,19.20
2017-07-14T17:08:51.787Z,18.90
2017-07-14T17:11:18.063Z,18.60
2017-07-14T17:13:44.329Z,18.30
2017-07-14T17:16:10.598Z,18.20
2017-07-14T17:18:36.894Z,18.10
2017-07-14T17:21:03.149Z,18.00
2017-07-14T17:23:29.420Z,17.90
2017-07-14T17:25:55.725Z,17.90
2017-07-14T17:28:22.002Z,17.70
2017-07-14T17:30:48.290Z,17.60
2017-07-14T17:33:14.552Z,17.10
2017-07-14T17:35:40.830Z,16.90
2017-07-14T17:38:07.094Z,16.40
2017-07-14T17:40:34.138Z,15.90
2017-07-14T17:43:01.178Z,15.70
2017-07-14T17:45:27.501Z,15.60
2017-07-14T17:47:53.769Z,15.40
2017-07-14T17:50:20.059Z,15.00
2017-07-14T17:52:47.081Z,14.30
2017-07-14T17:55:13.353Z,14.30
2017-07-14T17:57:39.626Z,14.20
2017-07-14T18:00:05.909Z,14.20
2017-07-14T18:02:32.179Z,14.30
2017-07-14T18:04:58.463Z,14.20
2017-07-14T18:07:24.758Z,14.20
2017-07-14T18:09:51.025Z,14.20
2017-07-14T18:12:17.298Z,14.20
2017-07-14T18:14:43.558Z,14.20
2017-07-14T18:17:09.830Z,14.20
2017-07-14T18:19:36.130Z,14.30
2017-07-14T18:22:02.390Z,14.40
2017-07-14T18:24:28.655Z,14.60
2017-07-14T18:26:54.927Z,14.70
2017-07-14T18:29:21.679Z,14.70
2017-07-14T18:31:47.987Z,14.80
2017-07-14T18:34:14.246Z,14.90
2017-07-14T18:36:40.505Z,14.80
2017-07-14T18:39:06.765Z,14.80
2017-07-14T18:41:33.856Z,14.80
2017-07-14T18:44:00.134Z,14.80
2017-07-14T18:46:26.404Z,14.80
2017-07-14T18:48:52.675Z,14.90
2017-07-14T18:51:18.951Z,14.90
2017-07-14T18:53:45.214Z,15.00
2017-07-14T18:56:11.502Z,15.00
2017-07-14T18:58:37.766Z,15.00
2017-07-14T19:01:04.054Z,15.10
2017-07-14T19:03:31.050Z,15.10
2017-07-14T19:05:57.317Z,15.10
2017-07-14T19:08:23.612Z,15.20
2017-07-14T19:10:49.891Z,15.20
2017-07-14T19:13:16.174Z,15.10
2017-07-14T19:15:42.439Z,15.00
2017-07-14T19:18:08.713Z,14.90
2017-07-14T19:20:35.003Z,14.80
2017-07-14T19:23:01.269Z,14.70
2017-07-14T19:25:27.578Z,14.80
2017-07-14T19:27:54.882Z,14.90
2017-07-14T19:30:21.174Z,14.80
2017-07-14T19:32:47.466Z,14.80
2017-07-14T19:35:14.462Z,14.90
2017-07-14T19:37:40.730Z,14.80
2017-07-14T19:40:07.737Z,14.60
2017-07-14T19:42:34.228Z,14.50
2017-07-14T19:45:00.613Z,14.50
2017-07-14T19:47:26.895Z,14.50
2017-07-14T19:49:53.173Z,14.40
2017-07-14T19:52:19.453Z,14.30
2017-07-14T19:54:45.717Z,14.20
2017-07-14T19:57:11.998Z,14.10
2017-07-14T19:59:38.272Z,14.10
2017-07-14T20:02:04.539Z,14.10
2017-07-14T20:04:30.805Z,14.00
2017-07-14T20:06:57.070Z,14.10
2017-07-14T20:09:23.350Z,14.00
2017-07-14T20:11:49.614Z,14.10
2017-07-14T20:14:15.894Z,13.90
2017-07-14T20:16:42.183Z,13.90
2017-07-14T20:19:09.484Z,13.90
2017-07-14T20:21:35.762Z,13.90
2017-07-14T20:24:02.026Z,13.90
2017-07-14T20:26:29.061Z,13.90
2017-07-14T20:28:55.330Z,13.80
2017-07-14T20:31:21.613Z,14.00
2017-07-14T20:33:47.889Z,13.90
2017-07-14T20:36:14.198Z,13.90
2017-07-14T20:38:40.499Z,13.90
2017-07-14T20:41:07.765Z,13.90
2017-07-14T20:43:34.034Z,13.80
2017-07-14T20:46:00.345Z,13.80
2017-07-14T20:48:26.621Z,13.90
2017-07-14T20:50:52.891Z,13.90
2017-07-14T20:53:19.903Z,14.00
2017-07-14T20:55:46.161Z,13.90
2017-07-14T20:58:13.212Z,14.00
2017-07-14T21:00:40.212Z,13.90
2017-07-14T21:03:06.478Z,13.90
2017-07-14T21:05:32.746Z,13.90
2017-07-14T21:07:59.007Z,13.90
2017-07-14T21:10:25.293Z,14.00
2017-07-14T21:12:51.554Z,13.90
2017-07-14T21:15:17.820Z,13.90
2017-07-14T21:17:44.090Z,13.90
2017-07-14T21:20:10.355Z,13.70
2017-07-14T21:22:36.650Z,13.60
2017-07-14T21:25:02.919Z,13.70
2017-07-14T21:27:29.187Z,13.70
2017-07-14T21:29:56.187Z,13.60
2017-07-14T21:32:22.483Z,13.60
2017-07-14T21:34:48.766Z,13.50
2017-07-14T21:37:15.061Z,13.60
2017-07-14T21:39:41.334Z,13.60
2017-07-14T21:42:08.350Z,13.50
2017-07-14T21:44:34.610Z,13.50
2017-07-14T21:47:00.901Z,13.50
2017-07-14T21:49:27.184Z,13.60
2017-07-14T21:51:53.449Z,13.60
2017-07-14T21:54:19.710Z,13.60
2017-07-14T21:56:45.999Z,13.60
2017-07-14T21:59:12.289Z,13.60
2017-07-14T22:01:39.289Z,13.90
2017-07-14T22:04:05.628Z,13.90
2017-07-14T22:06:32.906Z,13.90
2017-07-14T22:08:59.169Z,14.00
2017-07-14T22:11:25.490Z,14.20
2017-07-14T22:13:51.770Z,14.30
2017-07-14T22:16:18.046Z,14.30
2017-07-14T22:18:44.309Z,14.40
2017-07-14T22:21:10.575Z,14.40
2017-07-14T22:23:36.877Z,14.40
2017-07-14T22:26:03.153Z,14.50
2017-07-14T22:28:29.419Z,14.30
2017-07-14T22:30:55.702Z,14.30
2017-07-14T22:33:22.713Z,14.30
2017-07-14T22:35:49.014Z,14.20
2017-07-14T22:38:15.290Z,14.20
2017-07-14T22:40:42.559Z,14.10
2017-07-14T22:43:08.830Z,14.00
2017-07-14T22:45:35.081Z,14.00
2017-07-14T22:48:02.398Z,13.90
2017-07-14T22:50:28.666Z,14.00
2017-07-14T22:52:54.927Z,14.00
2017-07-14T22:55:21.216Z,13.90
2017-07-14T22:57:47.493Z,14.00
2017-07-14T23:00:13.808Z,14.00
2017-07-14T23:02:40.823Z,13.90
2017-07-14T23:05:07.090Z,13.90
2017-07-14T23:07:33.397Z,13.90
2017-07-14T23:09:59.669Z,13.90
2017-07-14T23:12:25.972Z,13.90
2017-07-14T23:14:52.978Z,13.90
2017-07-14T23:17:19.262Z,13.80
2017-07-14T23:19:45.519Z,13.90
2017-07-14T23:22:11.809Z,13.80
2017-07-14T23:24:38.110Z,13.80
2017-07-14T23:27:04.374Z,13.70
2017-07-14T23:29:30.649Z,13.70
2017-07-14T23:31:56.911Z,13.60
2017-07-14T23:34:23.178Z,13.60
2017-07-14T23:36:49.473Z,13.60
2017-07-14T23:39:15.762Z,13.60
2017-07-14T23:41:42.398Z,13.50
2017-07-14T23:44:08.665Z,13.60
2017-07-14T23:46:34.929Z,13.50
2017-07-14T23:49:01.227Z,13.50
2017-07-14T23:51:27.495Z,13.50
2017-07-14T23:53:53.749Z,13.50
2017-07-14T23:56:20.017Z,13.60
2017-07-14T23:58:47.026Z,13.60
